sensor_id;sensor_type;location;lat;lon;timestamp;P1;durP1;ratioP1;P2;durP2;ratioP2
53072;SDS011;38955;48.916;2.336;2023-12-22T00:01:49;24.83;;;5.45;;
53072;SDS011;38955;48.916;2.336;2023-12-22T00:03:51;26.73;;;4.93;;
53072;SDS011;38955;48.916;2.336;2023-12-22T00:05:54;19.63;;;4.85;;
53072;SDS011;38955;48.916;2.336;2023-12-22T00:07:56;21.42;;;4.72;;
53072;SDS011;38955;48.916;2.336;2023-12-22T00:09:58;24.23;;;5.28;;
53072;SDS011;38955;48.916;2.336;2023-12-22T00:12:00;24.13;;;5.20;;
53072;SDS011;38955;48.916;2.336;2023-12-22T00:14:02;24.05;;;5.55;;
53072;SDS011;38955;48.916;2.336;2023-12-22T00:16:04;19.70;;;5.32;;
53072;SDS011;38955;48.916;2.336;2023-12-22T00:18:08;25.85;;;5.70;;
53072;SDS011;38955;48.916;2.336;2023-12-22T00:20:10;23.95;;;5.40;;
53072;SDS011;38955;48.916;2.336;2023-12-22T00:22:15;19.48;;;4.45;;
53072;SDS011;38955;48.916;2.336;2023-12-22T00:24:17;20.42;;;5.75;;
53072;SDS011;38955;48.916;2.336;2023-12-22T00:26:19;26.75;;;5.38;;
53072;SDS011;38955;48.916;2.336;2023-12-22T00:28:21;20.50;;;4.95;;
53072;SDS011;38955;48.916;2.336;2023-12-22T00:30:23;24.40;;;5.35;;
53072;SDS011;38955;48.916;2.336;2023-12-22T00:32:25;20.65;;;4.75;;
53072;SDS011;38955;48.916;2.336;2023-12-22T00:34:29;25.77;;;5.80;;
53072;SDS011;38955;48.916;2.336;2023-12-22T00:36:31;24.77;;;5.32;;
53072;SDS011;38955;48.916;2.336;2023-12-22T00:38:33;23.10;;;6.07;;
53072;SDS011;38955;48.916;2.336;2023-12-22T00:40:35;23.90;;;5.22;;
53072;SDS011;38955;48.916;2.336;2023-12-22T00:42:37;22.63;;;4.68;;
53072;SDS011;38955;48.916;2.336;2023-12-22T00:44:39;20.95;;;4.70;;
53072;SDS011;38955;48.916;2.336;2023-12-22T00:46:41;25.33;;;5.63;;
53072;SDS011;38955;48.916;2.336;2023-12-22T00:48:43;21.15;;;4.57;;
53072;SDS011;38955;48.916;2.336;2023-12-22T00:50:47;25.35;;;6.25;;
53072;SDS011;38955;48.916;2.336;2023-12-22T00:52:49;25.80;;;5.57;;
53072;SDS011;38955;48.916;2.336;2023-12-22T00:54:51;24.70;;;5.38;;
53072;SDS011;38955;48.916;2.336;2023-12-22T00:56:54;25.88;;;5.50;;
53072;SDS011;38955;48.916;2.336;2023-12-22T00:58:56;28.55;;;5.40;;
53072;SDS011;38955;48.916;2.336;2023-12-22T01:01:09;23.08;;;5.13;;
53072;SDS011;38955;48.916;2.336;2023-12-22T01:03:11;25.08;;;5.65;;
53072;SDS011;38955;48.916;2.336;2023-12-22T01:05:14;28.35;;;5.65;;
53072;SDS011;38955;48.916;2.336;2023-12-22T01:07:19;25.33;;;5.85;;
53072;SDS011;38955;48.916;2.336;2023-12-22T01:09:21;24.08;;;5.70;;
53072;SDS011;38955;48.916;2.336;2023-12-22T01:11:23;22.88;;;5.28;;
53072;SDS011;38955;48.916;2.336;2023-12-22T01:13:26;27.15;;;5.57;;
53072;SDS011;38955;48.916;2.336;2023-12-22T01:15:28;27.35;;;5.80;;
53072;SDS011;38955;48.916;2.336;2023-12-22T01:17:30;29.17;;;6.07;;
53072;SDS011;38955;48.916;2.336;2023-12-22T01:19:32;19.42;;;5.05;;
53072;SDS011;38955;48.916;2.336;2023-12-22T01:21:34;28.27;;;5.65;;
53072;SDS011;38955;48.916;2.336;2023-12-22T01:23:38;27.90;;;6.45;;
53072;SDS011;38955;48.916;2.336;2023-12-22T01:25:39;23.88;;;5.20;;
53072;SDS011;38955;48.916;2.336;2023-12-22T01:27:42;28.35;;;5.80;;
53072;SDS011;38955;48.916;2.336;2023-12-22T01:29:44;28.27;;;6.38;;
53072;SDS011;38955;48.916;2.336;2023-12-22T01:31:46;23.23;;;4.80;;
53072;SDS011;38955;48.916;2.336;2023-12-22T01:33:48;23.92;;;5.60;;
53072;SDS011;38955;48.916;2.336;2023-12-22T01:35:50;24.50;;;5.40;;
53072;SDS011;38955;48.916;2.336;2023-12-22T01:37:53;27.42;;;5.22;;
53072;SDS011;38955;48.916;2.336;2023-12-22T01:39:59;25.33;;;5.78;;
53072;SDS011;38955;48.916;2.336;2023-12-22T01:42:01;28.65;;;6.15;;
53072;SDS011;38955;48.916;2.336;2023-12-22T01:44:04;25.00;;;6.35;;
53072;SDS011;38955;48.916;2.336;2023-12-22T01:46:06;28.58;;;5.00;;
53072;SDS011;38955;48.916;2.336;2023-12-22T01:48:09;27.15;;;5.18;;
53072;SDS011;38955;48.916;2.336;2023-12-22T01:50:11;24.80;;;5.28;;
53072;SDS011;38955;48.916;2.336;2023-12-22T01:52:18;23.08;;;5.25;;
53072;SDS011;38955;48.916;2.336;2023-12-22T01:54:20;23.60;;;5.20;;
53072;SDS011;38955;48.916;2.336;2023-12-22T01:56:23;20.15;;;5.07;;
53072;SDS011;38955;48.916;2.336;2023-12-22T01:58:26;26.48;;;5.10;;
53072;SDS011;38955;48.916;2.336;2023-12-22T02:00:29;25.25;;;4.82;;
53072;SDS011;38955;48.916;2.336;2023-12-22T02:02:32;21.27;;;5.15;;
53072;SDS011;38955;48.916;2.336;2023-12-22T02:04:34;25.20;;;5.53;;
53072;SDS011;38955;48.916;2.336;2023-12-22T02:06:36;18.73;;;4.22;;
53072;SDS011;38955;48.916;2.336;2023-12-22T02:08:38;25.42;;;5.15;;
53072;SDS011;38955;48.916;2.336;2023-12-22T02:10:42;21.95;;;4.40;;
53072;SDS011;38955;48.916;2.336;2023-12-22T02:12:45;20.13;;;4.53;;
53072;SDS011;38955;48.916;2.336;2023-12-22T02:14:48;26.08;;;4.80;;
53072;SDS011;38955;48.916;2.336;2023-12-22T02:16:52;21.52;;;4.28;;
53072;SDS011;38955;48.916;2.336;2023-12-22T02:18:57;18.10;;;4.80;;
53072;SDS011;38955;48.916;2.336;2023-12-22T02:21:05;19.85;;;4.55;;
53072;SDS011;38955;48.916;2.336;2023-12-22T02:23:08;17.08;;;3.85;;
53072;SDS011;38955;48.916;2.336;2023-12-22T02:25:10;21.90;;;4.75;;
53072;SDS011;38955;48.916;2.336;2023-12-22T02:27:15;21.45;;;4.88;;
53072;SDS011;38955;48.916;2.336;2023-12-22T02:29:24;18.33;;;4.80;;
53072;SDS011;38955;48.916;2.336;2023-12-22T02:31:32;19.58;;;4.18;;
53072;SDS011;38955;48.916;2.336;2023-12-22T02:33:38;22.67;;;4.28;;
53072;SDS011;38955;48.916;2.336;2023-12-22T02:35:42;21.92;;;4.07;;
53072;SDS011;38955;48.916;2.336;2023-12-22T02:37:49;22.20;;;5.00;;
53072;SDS011;38955;48.916;2.336;2023-12-22T02:39:54;14.48;;;4.72;;
53072;SDS011;38955;48.916;2.336;2023-12-22T02:41:57;22.10;;;4.90;;
53072;SDS011;38955;48.916;2.336;2023-12-22T02:44:00;17.88;;;5.22;;
53072;SDS011;38955;48.916;2.336;2023-12-22T02:46:02;17.50;;;4.50;;
53072;SDS011;38955;48.916;2.336;2023-12-22T02:48:07;24.85;;;5.35;;
53072;SDS011;38955;48.916;2.336;2023-12-22T02:50:09;19.52;;;4.95;;
53072;SDS011;38955;48.916;2.336;2023-12-22T02:52:13;20.52;;;4.95;;
53072;SDS011;38955;48.916;2.336;2023-12-22T02:54:15;16.20;;;3.80;;
53072;SDS011;38955;48.916;2.336;2023-12-22T02:56:18;18.40;;;4.35;;
53072;SDS011;38955;48.916;2.336;2023-12-22T02:58:21;22.83;;;4.90;;
53072;SDS011;38955;48.916;2.336;2023-12-22T03:00:23;18.88;;;4.75;;
53072;SDS011;38955;48.916;2.336;2023-12-22T03:02:25;19.23;;;4.60;;
53072;SDS011;38955;48.916;2.336;2023-12-22T03:04:27;18.13;;;4.07;;
53072;SDS011;38955;48.916;2.336;2023-12-22T03:06:29;17.80;;;3.92;;
53072;SDS011;38955;48.916;2.336;2023-12-22T03:08:31;19.75;;;3.85;;
53072;SDS011;38955;48.916;2.336;2023-12-22T03:10:33;19.08;;;4.20;;
53072;SDS011;38955;48.916;2.336;2023-12-22T03:12:37;18.10;;;4.00;;
53072;SDS011;38955;48.916;2.336;2023-12-22T03:14:39;16.70;;;4.30;;
53072;SDS011;38955;48.916;2.336;2023-12-22T03:16:41;18.00;;;4.40;;
53072;SDS011;38955;48.916;2.336;2023-12-22T03:18:43;20.58;;;4.53;;
53072;SDS011;38955;48.916;2.336;2023-12-22T03:20:46;15.55;;;3.85;;
53072;SDS011;38955;48.916;2.336;2023-12-22T03:22:48;20.98;;;4.07;;
53072;SDS011;38955;48.916;2.336;2023-12-22T03:24:50;20.05;;;4.18;;
53072;SDS011;38955;48.916;2.336;2023-12-22T03:26:52;24.40;;;4.90;;
53072;SDS011;38955;48.916;2.336;2023-12-22T03:28:55;22.33;;;4.78;;
53072;SDS011;38955;48.916;2.336;2023-12-22T03:30:57;21.25;;;4.45;;
53072;SDS011;38955;48.916;2.336;2023-12-22T03:32:59;17.83;;;4.38;;
53072;SDS011;38955;48.916;2.336;2023-12-22T03:35:02;14.50;;;3.80;;
53072;SDS011;38955;48.916;2.336;2023-12-22T03:37:04;16.77;;;3.35;;
53072;SDS011;38955;48.916;2.336;2023-12-22T03:39:06;17.73;;;3.65;;
53072;SDS011;38955;48.916;2.336;2023-12-22T03:41:08;18.35;;;3.78;;
53072;SDS011;38955;48.916;2.336;2023-12-22T03:43:10;18.48;;;4.35;;
53072;SDS011;38955;48.916;2.336;2023-12-22T03:45:14;15.45;;;3.45;;
53072;SDS011;38955;48.916;2.336;2023-12-22T03:47:16;16.70;;;4.43;;
53072;SDS011;38955;48.916;2.336;2023-12-22T03:49:19;22.20;;;4.40;;
53072;SDS011;38955;48.916;2.336;2023-12-22T03:51:21;17.40;;;4.90;;
53072;SDS011;38955;48.916;2.336;2023-12-22T03:53:23;18.70;;;4.10;;
53072;SDS011;38955;48.916;2.336;2023-12-22T03:55:25;17.48;;;4.45;;
53072;SDS011;38955;48.916;2.336;2023-12-22T03:57:28;21.05;;;5.00;;
53072;SDS011;38955;48.916;2.336;2023-12-22T03:59:30;18.13;;;4.00;;
53072;SDS011;38955;48.916;2.336;2023-12-22T04:01:33;16.95;;;4.22;;
53072;SDS011;38955;48.916;2.336;2023-12-22T04:03:35;18.55;;;4.30;;
53072;SDS011;38955;48.916;2.336;2023-12-22T04:05:37;25.48;;;5.45;;
53072;SDS011;38955;48.916;2.336;2023-12-22T04:07:39;20.92;;;4.25;;
53072;SDS011;38955;48.916;2.336;2023-12-22T04:09:41;21.80;;;4.82;;
53072;SDS011;38955;48.916;2.336;2023-12-22T04:11:43;25.55;;;4.35;;
53072;SDS011;38955;48.916;2.336;2023-12-22T04:13:45;21.27;;;4.13;;
53072;SDS011;38955;48.916;2.336;2023-12-22T04:15:47;17.73;;;4.50;;
53072;SDS011;38955;48.916;2.336;2023-12-22T04:17:51;18.75;;;5.22;;
53072;SDS011;38955;48.916;2.336;2023-12-22T04:19:53;15.43;;;4.20;;
53072;SDS011;38955;48.916;2.336;2023-12-22T04:21:55;19.48;;;3.80;;
53072;SDS011;38955;48.916;2.336;2023-12-22T04:23:57;20.05;;;3.80;;
53072;SDS011;38955;48.916;2.336;2023-12-22T04:25:59;17.20;;;3.80;;
53072;SDS011;38955;48.916;2.336;2023-12-22T04:28:03;20.60;;;4.75;;
53072;SDS011;38955;48.916;2.336;2023-12-22T04:30:06;16.77;;;3.33;;
53072;SDS011;38955;48.916;2.336;2023-12-22T04:32:09;14.45;;;2.78;;
53072;SDS011;38955;48.916;2.336;2023-12-22T04:34:12;14.65;;;3.25;;
53072;SDS011;38955;48.916;2.336;2023-12-22T04:36:15;13.98;;;3.20;;
53072;SDS011;38955;48.916;2.336;2023-12-22T04:38:18;17.13;;;3.35;;
53072;SDS011;38955;48.916;2.336;2023-12-22T04:40:20;16.90;;;2.95;;
53072;SDS011;38955;48.916;2.336;2023-12-22T04:42:22;12.20;;;2.70;;
53072;SDS011;38955;48.916;2.336;2023-12-22T04:44:24;9.95;;;2.55;;
53072;SDS011;38955;48.916;2.336;2023-12-22T04:46:26;13.82;;;2.67;;
53072;SDS011;38955;48.916;2.336;2023-12-22T04:48:28;11.82;;;2.13;;
53072;SDS011;38955;48.916;2.336;2023-12-22T04:50:32;14.23;;;2.60;;
53072;SDS011;38955;48.916;2.336;2023-12-22T04:52:34;15.98;;;3.15;;
53072;SDS011;38955;48.916;2.336;2023-12-22T04:54:36;15.10;;;2.88;;
53072;SDS011;38955;48.916;2.336;2023-12-22T04:56:38;19.30;;;3.35;;
53072;SDS011;38955;48.916;2.336;2023-12-22T04:58:40;12.23;;;2.83;;
53072;SDS011;38955;48.916;2.336;2023-12-22T05:00:42;18.10;;;2.58;;
53072;SDS011;38955;48.916;2.336;2023-12-22T05:02:45;13.18;;;2.75;;
53072;SDS011;38955;48.916;2.336;2023-12-22T05:04:47;14.18;;;3.08;;
53072;SDS011;38955;48.916;2.336;2023-12-22T05:06:50;12.40;;;2.88;;
53072;SDS011;38955;48.916;2.336;2023-12-22T05:08:52;13.63;;;2.90;;
53072;SDS011;38955;48.916;2.336;2023-12-22T05:10:54;13.43;;;3.53;;
53072;SDS011;38955;48.916;2.336;2023-12-22T05:12:56;12.88;;;3.30;;
53072;SDS011;38955;48.916;2.336;2023-12-22T05:14:58;15.27;;;3.33;;
53072;SDS011;38955;48.916;2.336;2023-12-22T05:17:00;15.10;;;3.35;;
53072;SDS011;38955;48.916;2.336;2023-12-22T05:19:03;12.68;;;2.83;;
53072;SDS011;38955;48.916;2.336;2023-12-22T05:21:05;11.15;;;3.03;;
53072;SDS011;38955;48.916;2.336;2023-12-22T05:23:08;15.50;;;3.47;;
53072;SDS011;38955;48.916;2.336;2023-12-22T05:25:12;11.90;;;2.95;;
53072;SDS011;38955;48.916;2.336;2023-12-22T05:27:14;10.20;;;3.15;;
53072;SDS011;38955;48.916;2.336;2023-12-22T05:29:16;15.65;;;3.55;;
53072;SDS011;38955;48.916;2.336;2023-12-22T05:31:18;14.27;;;2.97;;
53072;SDS011;38955;48.916;2.336;2023-12-22T05:33:21;14.38;;;3.00;;
53072;SDS011;38955;48.916;2.336;2023-12-22T05:35:23;11.57;;;2.90;;
53072;SDS011;38955;48.916;2.336;2023-12-22T05:37:25;16.25;;;3.03;;
53072;SDS011;38955;48.916;2.336;2023-12-22T05:39:28;20.73;;;3.85;;
53072;SDS011;38955;48.916;2.336;2023-12-22T05:41:32;13.10;;;3.30;;
53072;SDS011;38955;48.916;2.336;2023-12-22T05:43:37;8.63;;;2.65;;
53072;SDS011;38955;48.916;2.336;2023-12-22T05:45:39;18.30;;;3.20;;
53072;SDS011;38955;48.916;2.336;2023-12-22T05:47:41;11.95;;;2.65;;
53072;SDS011;38955;48.916;2.336;2023-12-22T05:49:44;10.73;;;2.25;;
53072;SDS011;38955;48.916;2.336;2023-12-22T05:51:46;11.63;;;2.47;;
53072;SDS011;38955;48.916;2.336;2023-12-22T05:53:48;13.75;;;2.67;;
53072;SDS011;38955;48.916;2.336;2023-12-22T05:55:51;10.02;;;2.17;;
53072;SDS011;38955;48.916;2.336;2023-12-22T05:57:53;8.05;;;1.70;;
53072;SDS011;38955;48.916;2.336;2023-12-22T05:59:56;11.05;;;2.72;;
53072;SDS011;38955;48.916;2.336;2023-12-22T06:01:58;11.20;;;2.50;;
53072;SDS011;38955;48.916;2.336;2023-12-22T06:04:01;8.65;;;2.47;;
53072;SDS011;38955;48.916;2.336;2023-12-22T06:06:03;8.40;;;1.98;;
53072;SDS011;38955;48.916;2.336;2023-12-22T06:08:06;9.43;;;1.70;;
53072;SDS011;38955;48.916;2.336;2023-12-22T06:10:09;10.93;;;2.15;;
53072;SDS011;38955;48.916;2.336;2023-12-22T06:12:12;11.60;;;2.22;;
53072;SDS011;38955;48.916;2.336;2023-12-22T06:14:15;8.02;;;2.42;;
53072;SDS011;38955;48.916;2.336;2023-12-22T06:16:17;10.38;;;2.67;;
53072;SDS011;38955;48.916;2.336;2023-12-22T06:18:20;9.52;;;2.15;;
53072;SDS011;38955;48.916;2.336;2023-12-22T06:20:22;10.45;;;2.13;;
53072;SDS011;38955;48.916;2.336;2023-12-22T06:22:24;6.70;;;2.20;;
53072;SDS011;38955;48.916;2.336;2023-12-22T06:24:26;11.32;;;2.30;;
53072;SDS011;38955;48.916;2.336;2023-12-22T06:26:28;9.02;;;1.88;;
53072;SDS011;38955;48.916;2.336;2023-12-22T06:28:32;10.15;;;2.35;;
53072;SDS011;38955;48.916;2.336;2023-12-22T06:30:34;8.65;;;2.15;;
53072;SDS011;38955;48.916;2.336;2023-12-22T06:32:37;16.05;;;2.30;;
53072;SDS011;38955;48.916;2.336;2023-12-22T06:34:41;11.38;;;2.22;;
53072;SDS011;38955;48.916;2.336;2023-12-22T06:36:43;8.73;;;2.17;;
53072;SDS011;38955;48.916;2.336;2023-12-22T06:38:45;7.53;;;1.98;;
53072;SDS011;38955;48.916;2.336;2023-12-22T06:40:47;10.55;;;2.33;;
53072;SDS011;38955;48.916;2.336;2023-12-22T06:42:49;10.38;;;1.77;;
53072;SDS011;38955;48.916;2.336;2023-12-22T06:44:53;13.27;;;2.63;;
53072;SDS011;38955;48.916;2.336;2023-12-22T06:46:55;13.68;;;2.90;;
53072;SDS011;38955;48.916;2.336;2023-12-22T06:48:57;10.35;;;2.63;;
53072;SDS011;38955;48.916;2.336;2023-12-22T06:51:00;9.00;;;1.85;;
53072;SDS011;38955;48.916;2.336;2023-12-22T06:53:02;13.05;;;2.38;;
53072;SDS011;38955;48.916;2.336;2023-12-22T06:55:19;8.32;;;2.35;;
53072;SDS011;38955;48.916;2.336;2023-12-22T06:57:21;10.57;;;2.83;;
53072;SDS011;38955;48.916;2.336;2023-12-22T06:59:26;13.27;;;2.67;;
53072;SDS011;38955;48.916;2.336;2023-12-22T07:01:31;18.55;;;2.58;;
53072;SDS011;38955;48.916;2.336;2023-12-22T07:05:38;9.32;;;2.10;;
53072;SDS011;38955;48.916;2.336;2023-12-22T07:07:40;10.20;;;2.25;;
53072;SDS011;38955;48.916;2.336;2023-12-22T07:09:42;9.88;;;2.40;;
53072;SDS011;38955;48.916;2.336;2023-12-22T07:11:45;12.30;;;3.08;;
53072;SDS011;38955;48.916;2.336;2023-12-22T07:13:48;13.00;;;2.30;;
53072;SDS011;38955;48.916;2.336;2023-12-22T07:15:50;11.30;;;2.67;;
53072;SDS011;38955;48.916;2.336;2023-12-22T07:17:54;11.57;;;3.22;;
53072;SDS011;38955;48.916;2.336;2023-12-22T07:19:57;7.57;;;1.90;;
53072;SDS011;38955;48.916;2.336;2023-12-22T07:21:59;9.75;;;2.20;;
53072;SDS011;38955;48.916;2.336;2023-12-22T07:24:03;11.68;;;2.38;;
53072;SDS011;38955;48.916;2.336;2023-12-22T07:26:06;12.73;;;2.63;;
53072;SDS011;38955;48.916;2.336;2023-12-22T07:28:09;11.05;;;2.05;;
53072;SDS011;38955;48.916;2.336;2023-12-22T07:30:11;8.90;;;2.70;;
53072;SDS011;38955;48.916;2.336;2023-12-22T07:32:17;12.15;;;2.30;;
53072;SDS011;38955;48.916;2.336;2023-12-22T07:34:20;11.15;;;2.70;;
53072;SDS011;38955;48.916;2.336;2023-12-22T07:36:24;9.18;;;1.98;;
53072;SDS011;38955;48.916;2.336;2023-12-22T07:38:26;9.00;;;1.88;;
53072;SDS011;38955;48.916;2.336;2023-12-22T07:40:29;12.30;;;2.35;;
53072;SDS011;38955;48.916;2.336;2023-12-22T07:42:31;9.63;;;2.65;;
53072;SDS011;38955;48.916;2.336;2023-12-22T07:44:33;10.32;;;2.38;;
53072;SDS011;38955;48.916;2.336;2023-12-22T07:46:35;9.07;;;2.08;;
53072;SDS011;38955;48.916;2.336;2023-12-22T07:48:38;9.30;;;2.03;;
53072;SDS011;38955;48.916;2.336;2023-12-22T07:50:41;11.32;;;2.10;;
53072;SDS011;38955;48.916;2.336;2023-12-22T07:52:43;13.40;;;2.60;;
53072;SDS011;38955;48.916;2.336;2023-12-22T07:54:46;8.65;;;2.22;;
53072;SDS011;38955;48.916;2.336;2023-12-22T07:56:49;8.25;;;2.13;;
53072;SDS011;38955;48.916;2.336;2023-12-22T07:58:51;12.07;;;2.35;;
53072;SDS011;38955;48.916;2.336;2023-12-22T08:00:53;9.65;;;2.42;;
53072;SDS011;38955;48.916;2.336;2023-12-22T08:02:55;12.93;;;2.58;;
53072;SDS011;38955;48.916;2.336;2023-12-22T08:04:57;9.25;;;2.20;;
53072;SDS011;38955;48.916;2.336;2023-12-22T08:07:01;10.80;;;2.63;;
53072;SDS011;38955;48.916;2.336;2023-12-22T08:09:03;10.27;;;2.53;;
53072;SDS011;38955;48.916;2.336;2023-12-22T08:11:05;9.60;;;2.40;;
53072;SDS011;38955;48.916;2.336;2023-12-22T08:13:08;9.15;;;2.05;;
53072;SDS011;38955;48.916;2.336;2023-12-22T08:15:10;5.95;;;2.08;;
53072;SDS011;38955;48.916;2.336;2023-12-22T08:17:22;8.82;;;2.05;;
53072;SDS011;38955;48.916;2.336;2023-12-22T08:19:24;5.13;;;1.70;;
53072;SDS011;38955;48.916;2.336;2023-12-22T08:21:31;2.60;;;1.05;;
53072;SDS011;38955;48.916;2.336;2023-12-22T08:23:46;8.60;;;1.50;;
53072;SDS011;38955;48.916;2.336;2023-12-22T08:25:55;3.88;;;1.20;;
53072;SDS011;38955;48.916;2.336;2023-12-22T08:27:59;2.92;;;1.10;;
53072;SDS011;38955;48.916;2.336;2023-12-22T08:30:02;4.32;;;1.20;;
53072;SDS011;38955;48.916;2.336;2023-12-22T08:32:05;5.70;;;1.35;;
53072;SDS011;38955;48.916;2.336;2023-12-22T08:34:08;3.25;;;1.20;;
53072;SDS011;38955;48.916;2.336;2023-12-22T08:36:10;4.70;;;1.10;;
53072;SDS011;38955;48.916;2.336;2023-12-22T08:38:12;5.65;;;1.23;;
53072;SDS011;38955;48.916;2.336;2023-12-22T08:40:16;6.43;;;1.40;;
53072;SDS011;38955;48.916;2.336;2023-12-22T08:42:18;6.13;;;1.95;;
53072;SDS011;38955;48.916;2.336;2023-12-22T08:44:21;3.55;;;1.42;;
53072;SDS011;38955;48.916;2.336;2023-12-22T08:46:23;5.78;;;1.98;;
53072;SDS011;38955;48.916;2.336;2023-12-22T08:48:27;5.43;;;1.33;;
53072;SDS011;38955;48.916;2.336;2023-12-22T08:50:29;6.43;;;2.15;;
53072;SDS011;38955;48.916;2.336;2023-12-22T08:52:31;5.20;;;1.63;;
53072;SDS011;38955;48.916;2.336;2023-12-22T08:54:34;6.80;;;1.65;;
53072;SDS011;38955;48.916;2.336;2023-12-22T08:56:38;5.82;;;1.45;;
53072;SDS011;38955;48.916;2.336;2023-12-22T08:58:40;10.25;;;1.75;;
53072;SDS011;38955;48.916;2.336;2023-12-22T09:00:42;11.98;;;2.25;;
53072;SDS011;38955;48.916;2.336;2023-12-22T09:02:44;8.07;;;1.88;;
53072;SDS011;38955;48.916;2.336;2023-12-22T09:04:46;7.22;;;2.15;;
53072;SDS011;38955;48.916;2.336;2023-12-22T09:06:49;5.93;;;2.17;;
53072;SDS011;38955;48.916;2.336;2023-12-22T09:08:51;8.40;;;1.80;;
53072;SDS011;38955;48.916;2.336;2023-12-22T09:10:55;7.72;;;1.50;;
53072;SDS011;38955;48.916;2.336;2023-12-22T09:12:58;12.15;;;2.15;;
53072;SDS011;38955;48.916;2.336;2023-12-22T09:15:01;10.43;;;2.60;;
53072;SDS011;38955;48.916;2.336;2023-12-22T09:17:05;6.38;;;2.03;;
53072;SDS011;38955;48.916;2.336;2023-12-22T09:19:07;9.57;;;2.63;;
53072;SDS011;38955;48.916;2.336;2023-12-22T09:21:09;8.90;;;2.10;;
53072;SDS011;38955;48.916;2.336;2023-12-22T09:23:11;10.25;;;2.22;;
53072;SDS011;38955;48.916;2.336;2023-12-22T09:25:13;6.00;;;1.90;;
53072;SDS011;38955;48.916;2.336;2023-12-22T09:27:16;9.52;;;2.28;;
53072;SDS011;38955;48.916;2.336;2023-12-22T09:29:19;6.85;;;2.30;;
53072;SDS011;38955;48.916;2.336;2023-12-22T09:33:25;7.18;;;2.03;;
53072;SDS011;38955;48.916;2.336;2023-12-22T09:35:27;11.95;;;2.55;;
53072;SDS011;38955;48.916;2.336;2023-12-22T09:37:29;9.18;;;1.73;;
53072;SDS011;38955;48.916;2.336;2023-12-22T09:39:31;13.60;;;2.45;;
53072;SDS011;38955;48.916;2.336;2023-12-22T09:41:33;9.50;;;2.20;;
53072;SDS011;38955;48.916;2.336;2023-12-22T09:43:35;10.05;;;2.55;;
53072;SDS011;38955;48.916;2.336;2023-12-22T09:45:42;10.35;;;2.22;;
53072;SDS011;38955;48.916;2.336;2023-12-22T09:47:44;12.07;;;2.20;;
53072;SDS011;38955;48.916;2.336;2023-12-22T09:49:47;10.38;;;2.40;;
53072;SDS011;38955;48.916;2.336;2023-12-22T09:51:51;8.25;;;2.03;;
53072;SDS011;38955;48.916;2.336;2023-12-22T09:53:54;9.23;;;2.40;;
53072;SDS011;38955;48.916;2.336;2023-12-22T09:55:58;7.82;;;2.00;;
53072;SDS011;38955;48.916;2.336;2023-12-22T09:58:00;6.47;;;1.90;;
53072;SDS011;38955;48.916;2.336;2023-12-22T10:00:04;10.65;;;2.15;;
53072;SDS011;38955;48.916;2.336;2023-12-22T10:02:10;4.72;;;1.55;;
53072;SDS011;38955;48.916;2.336;2023-12-22T10:04:13;8.50;;;1.90;;
53072;SDS011;38955;48.916;2.336;2023-12-22T10:06:15;8.23;;;1.90;;
53072;SDS011;38955;48.916;2.336;2023-12-22T10:08:21;10.70;;;2.65;;
53072;SDS011;38955;48.916;2.336;2023-12-22T10:10:24;8.27;;;1.88;;
53072;SDS011;38955;48.916;2.336;2023-12-22T10:12:27;7.60;;;2.05;;
53072;SDS011;38955;48.916;2.336;2023-12-22T10:14:31;10.10;;;2.05;;
53072;SDS011;38955;48.916;2.336;2023-12-22T10:16:40;9.63;;;1.88;;
53072;SDS011;38955;48.916;2.336;2023-12-22T10:18:44;9.45;;;1.83;;
53072;SDS011;38955;48.916;2.336;2023-12-22T10:20:47;5.45;;;1.80;;
53072;SDS011;38955;48.916;2.336;2023-12-22T10:22:49;10.55;;;2.33;;
53072;SDS011;38955;48.916;2.336;2023-12-22T10:24:51;9.32;;;2.05;;
53072;SDS011;38955;48.916;2.336;2023-12-22T10:26:53;8.57;;;2.20;;
53072;SDS011;38955;48.916;2.336;2023-12-22T10:28:57;8.55;;;1.88;;
53072;SDS011;38955;48.916;2.336;2023-12-22T10:30:59;8.05;;;2.28;;
53072;SDS011;38955;48.916;2.336;2023-12-22T10:33:07;11.32;;;2.58;;
53072;SDS011;38955;48.916;2.336;2023-12-22T10:35:11;8.60;;;1.92;;
53072;SDS011;38955;48.916;2.336;2023-12-22T10:37:13;11.80;;;2.67;;
53072;SDS011;38955;48.916;2.336;2023-12-22T10:39:17;11.73;;;2.60;;
53072;SDS011;38955;48.916;2.336;2023-12-22T10:41:19;10.35;;;2.38;;
53072;SDS011;38955;48.916;2.336;2023-12-22T10:43:21;10.82;;;2.53;;
53072;SDS011;38955;48.916;2.336;2023-12-22T10:45:23;12.70;;;2.28;;
53072;SDS011;38955;48.916;2.336;2023-12-22T10:47:26;13.90;;;2.80;;
53072;SDS011;38955;48.916;2.336;2023-12-22T10:49:30;12.73;;;2.63;;
53072;SDS011;38955;48.916;2.336;2023-12-22T10:51:34;9.27;;;2.58;;
53072;SDS011;38955;48.916;2.336;2023-12-22T10:53:36;11.98;;;2.78;;
53072;SDS011;38955;48.916;2.336;2023-12-22T10:55:41;10.55;;;2.33;;
53072;SDS011;38955;48.916;2.336;2023-12-22T10:57:44;8.70;;;2.35;;
53072;SDS011;38955;48.916;2.336;2023-12-22T10:59:48;10.40;;;2.80;;
53072;SDS011;38955;48.916;2.336;2023-12-22T11:01:58;11.65;;;2.58;;
53072;SDS011;38955;48.916;2.336;2023-12-22T11:04:03;17.50;;;2.95;;
53072;SDS011;38955;48.916;2.336;2023-12-22T11:06:06;8.55;;;2.55;;
53072;SDS011;38955;48.916;2.336;2023-12-22T11:08:19;10.40;;;2.72;;
53072;SDS011;38955;48.916;2.336;2023-12-22T11:10:29;10.90;;;2.53;;
53072;SDS011;38955;48.916;2.336;2023-12-22T11:12:33;8.45;;;2.42;;
53072;SDS011;38955;48.916;2.336;2023-12-22T11:14:37;10.00;;;2.60;;
53072;SDS011;38955;48.916;2.336;2023-12-22T11:16:40;14.27;;;3.33;;
53072;SDS011;38955;48.916;2.336;2023-12-22T11:18:48;9.05;;;2.95;;
53072;SDS011;38955;48.916;2.336;2023-12-22T11:20:53;15.25;;;4.65;;
53072;SDS011;38955;48.916;2.336;2023-12-22T11:22:55;15.07;;;3.35;;
53072;SDS011;38955;48.916;2.336;2023-12-22T11:27:04;13.13;;;2.80;;
53072;SDS011;38955;48.916;2.336;2023-12-22T11:29:08;12.80;;;2.97;;
53072;SDS011;38955;48.916;2.336;2023-12-22T11:31:12;18.08;;;3.25;;
53072;SDS011;38955;48.916;2.336;2023-12-22T11:33:15;17.80;;;3.92;;
53072;SDS011;38955;48.916;2.336;2023-12-22T11:35:18;17.80;;;3.53;;
53072;SDS011;38955;48.916;2.336;2023-12-22T11:37:20;15.43;;;3.92;;
53072;SDS011;38955;48.916;2.336;2023-12-22T11:39:22;14.32;;;3.42;;
53072;SDS011;38955;48.916;2.336;2023-12-22T11:41:26;23.85;;;3.97;;
53072;SDS011;38955;48.916;2.336;2023-12-22T11:43:32;15.50;;;3.65;;
53072;SDS011;38955;48.916;2.336;2023-12-22T11:45:36;16.85;;;3.83;;
53072;SDS011;38955;48.916;2.336;2023-12-22T11:47:38;17.90;;;3.97;;
53072;SDS011;38955;48.916;2.336;2023-12-22T11:49:41;14.40;;;3.47;;
53072;SDS011;38955;48.916;2.336;2023-12-22T11:51:43;17.35;;;4.50;;
53072;SDS011;38955;48.916;2.336;2023-12-22T11:53:46;16.27;;;3.72;;
53072;SDS011;38955;48.916;2.336;2023-12-22T11:55:58;15.13;;;4.10;;
53072;SDS011;38955;48.916;2.336;2023-12-22T12:00:39;25.13;;;7.30;;
53072;SDS011;38955;48.916;2.336;2023-12-22T12:02:41;16.63;;;4.65;;
53072;SDS011;38955;48.916;2.336;2023-12-22T12:04:43;16.60;;;3.35;;
53072;SDS011;38955;48.916;2.336;2023-12-22T12:06:49;17.15;;;3.58;;
53072;SDS011;38955;48.916;2.336;2023-12-22T12:08:51;19.40;;;4.47;;
53072;SDS011;38955;48.916;2.336;2023-12-22T12:10:54;20.13;;;3.88;;
53072;SDS011;38955;48.916;2.336;2023-12-22T12:13:03;18.50;;;4.75;;
53072;SDS011;38955;48.916;2.336;2023-12-22T12:15:08;18.58;;;4.60;;
53072;SDS011;38955;48.916;2.336;2023-12-22T12:17:12;17.73;;;4.03;;
53072;SDS011;38955;48.916;2.336;2023-12-22T12:19:19;25.02;;;4.95;;
53072;SDS011;38955;48.916;2.336;2023-12-22T12:21:21;21.58;;;5.15;;
53072;SDS011;38955;48.916;2.336;2023-12-22T12:23:24;27.13;;;5.20;;